• Join FlightAware (Why Join?)
  • Login
  • US Flag 
03:45AM EDT


 

Airport Tracker/Info


-or-


 

Live Flight TrackerFlight Track Log ✈ N1253W ✈ 19-Apr-2013 ✈ KOSU - KBKL

Flight Track Log - Related Links

Times and Time Zones

All times are in EDT time to prevent confusion due to time zone crossing. See the N1253W flight status page for this flight to view local times or setup timezone preferences in your user account.

Time Position Orientation Groundspeed Altitude Reporting Facility
EDT Latitude Longitude Course Direction KTS MPH feet Rate Location/Type
07:49AM 40.0764 -83.0847 336° Northwest 102 117 1,300  Level Indianapolis Center
07:50AM 40.1006 -83.0986 336° Northwest 153 176 2,700 1,440 Climbing Indianapolis Center
07:51AM 40.1408 -83.1025 356° North 154 177 3,800 1,260 Climbing Indianapolis Center
07:51AM 40.1606 -83.1111 342° North 190 219 4,300 1,320 Climbing Indianapolis Center
07:52AM 40.1922 -83.1208 347° North 177 204 5,200 1,500 Climbing Indianapolis Center
07:52AM 40.2136 -83.1281 346° North 190 219 6,000 1,440 Climbing Indianapolis Center
07:53AM 40.2483 -83.1339 353° North 197 227 6,700 1,380 Climbing Indianapolis Center
07:53AM 40.2700 -83.1319 North 223 257 7,300 1,320 Climbing Indianapolis Center
07:54AM 40.3083 -83.1033 30° Northeast 240 276 8,100 1,200 Climbing Indianapolis Center
07:55AM 40.3700 -83.0544 31° Northeast 255 293 9,500 900 Climbing Indianapolis Center
07:56AM 40.4325 -82.9944 36° Northeast 274 315 10,000 240 Climbing Indianapolis Center
07:57AM 40.4961 -82.9306 37° Northeast 284 327 10,000 480 Level Indianapolis Center
07:58AM 40.5586 -82.8603 40° Northeast 261 300 11,100 1,020 Climbing Indianapolis Center
07:59AM 40.5894 -82.7711 65° Northeast 266 306 12,200 900 Climbing Indianapolis Center
08:00AM 40.6192 -82.6736 68° East 283 326 13,000 360 Climbing Indianapolis Center
08:01AM 40.6511 -82.5689 68° East 303 349 13,000  Level Indianapolis Center
08:02AM 40.6831 -82.4681 67° East 297 342 13,000  Level Indianapolis Center
08:03AM 40.7147 -82.3678 67° East 295 339 13,000  Level Indianapolis Center
08:04AM 40.7444 -82.2672 69° East 293 337 13,000  Level Indianapolis Center
08:04AM 40.7600 -82.2142 69° East 285 328 13,000  Level Cleveland Center
08:05AM 40.7817 -82.1597 62° Northeast 284 327 13,000  Level Cleveland Center
08:06AM 40.8133 -82.1278 37° Northeast 265 305 13,000 -300 Level Cleveland Center
08:06AM 40.8408 -82.1008 37° Northeast 261 300 12,700 -900 Descending Cleveland Center
08:06AM 40.8683 -82.0822 27° Northeast 266 306 12,200 -1,200 Descending Cleveland Center
08:07AM 40.9061 -82.0556 28° Northeast 256 295 11,500 -1,140 Descending Cleveland Center
08:08AM 40.9314 -82.0369 29° Northeast 256 295 11,100 -1,020 Descending Cleveland Center
08:08AM 40.9692 -82.0103 28° Northeast 256 295 10,500 -1,140 Descending Cleveland Center
08:09AM 41.0028 -81.9836 31° Northeast 260 299 9,900 -1,020 Descending Cleveland Center
08:09AM 41.0322 -81.9622 29° Northeast 256 295 9,500 -900 Descending Cleveland Center
08:10AM 41.0703 -81.9353 28° Northeast 267 307 9,000 -900 Descending Cleveland Center
08:10AM 41.0911 -81.9194 30° Northeast 256 295 8,600 -1,320 Descending Cleveland Center
08:11AM 41.1375 -81.8844 30° Northeast 275 316 7,700 -1,440 Descending Cleveland Center
08:11AM 41.1583 -81.8711 26° Northeast 269 310 7,200 -1,380 Descending Cleveland Center
08:12AM 41.2111 -81.8333 28° Northeast 279 321 6,200 -1,320 Descending Cleveland Center
08:12AM 41.2258 -81.8228 28° Northeast 269 310 5,900 -1,200 Descending Cleveland Center
08:13AM 41.2719 -81.7875 30° Northeast 251 289 5,000 -1,320 Descending Cleveland Center
08:13AM 41.2867 -81.7769 28° Northeast 256 295 4,600 -1,200 Descending Cleveland Center
08:14AM 41.3308 -81.7444 29° Northeast 231 266 3,800 -1,200 Descending Cleveland Center
08:14AM 41.3497 -81.7311 28° Northeast 238 274 3,400 -720 Descending Cleveland Center
08:15AM 41.3894 -81.7042 27° Northeast 223 257 3,100 -300 Descending Cleveland Center
08:16AM 41.4294 -81.6606 39° Northeast 222 255 3,000  Descending Cleveland Center
08:17AM 41.4800 -81.6086 38° Northeast 221 254 3,100  Climbing Cleveland Center
08:18AM 41.5264 -81.5567 40° Northeast 199 229 3,000 -120 Descending Cleveland Center
08:19AM 41.5767 -81.5381 15° North 209 241 2,900 -360 Descending Cleveland Center
08:20AM 41.5681 -81.5767 253° West 95 109 2,300 -600 Descending Cleveland Center
08:21AM 41.5508 -81.6125 237° Southwest 109 125 1,800 -600 Descending Cleveland Center
08:22AM 41.5317 -81.6567 240° Southwest 116 133 1,100 -660 Descending Cleveland Center